Time;durP1;ratioP1;P1;durP2;ratioP2;P2;SDS_P1;SDS_P2;PMS_P1;PMS_P2;Temp;Humidity;BMP_temperature;BMP_pressure;BME280_temperature;BME280_humidity;BME280_pressure;Samples;Min_cycle;Max_cycle;Signal;HPM_P1;HPM_P2
2022/11/18 00:01:46;;;;;;;1.00;0.70;;;10.80;99.90;;;;;;5054269;28;20590;-59
2022/11/18 00:04:13;;;;;;;0.97;0.70;;;10.80;99.90;;;;;;5054487;28;20217;-59
2022/11/18 00:06:40;;;;;;;2.77;0.80;;;10.90;99.90;;;;;;5054778;28;20206;-58
2022/11/18 00:09:06;;;;;;;1.03;0.73;;;10.80;99.90;;;;;;5054665;28;20229;-59
2022/11/18 00:14:23;;;;;;;0.67;0.40;;;10.80;99.90;;;;;;5054171;28;20205;-58
2022/11/18 00:16:53;;;;;;;0.90;0.50;;;10.70;99.90;;;;;;5055179;28;20232;-57
2022/11/18 00:19:22;;;;;;;0.60;0.57;;;10.70;99.90;;;;;;5054678;28;20320;-57
2022/11/18 00:21:49;;;;;;;0.97;0.70;;;10.60;99.90;;;;;;5054692;28;20202;-57
2022/11/18 00:24:16;;;;;;;1.50;0.77;;;10.60;99.90;;;;;;5054364;28;20612;-57
2022/11/18 00:26:43;;;;;;;2.17;0.90;;;10.50;99.90;;;;;;5054640;28;20559;-57
2022/11/18 00:29:10;;;;;;;0.87;0.70;;;10.60;99.90;;;;;;5054471;28;20228;-57
2022/11/18 00:31:39;;;;;;;0.53;0.53;;;10.70;99.90;;;;;;5054499;28;20209;-57
2022/11/18 00:34:06;;;;;;;0.77;0.60;;;10.70;99.90;;;;;;5053880;28;20205;-57
2022/11/18 00:36:33;;;;;;;1.60;0.90;;;10.80;99.90;;;;;;5053998;28;20216;-57
2022/11/18 00:39:00;;;;;;;1.07;0.63;;;10.80;99.90;;;;;;5053883;28;20229;-58
2022/11/18 00:42:49;;;;;;;1.13;0.50;;;10.90;99.90;;;;;;5054459;28;20205;-57
2022/11/18 00:44:14;;;;;;;1.00;0.83;;;11.10;99.90;;;;;;5054259;28;20205;-57
2022/11/18 00:46:42;;;;;;;2.10;1.00;;;11.10;99.90;;;;;;5054412;28;20205;-57
2022/11/18 00:49:10;;;;;;;1.73;0.60;;;11.10;99.90;;;;;;5054377;28;20232;-55
2022/11/18 00:51:36;;;;;;;0.77;0.40;;;11.10;99.90;;;;;;5054698;28;20749;-56
2022/11/18 00:54:04;;;;;;;0.50;0.40;;;11.10;99.90;;;;;;5054375;28;20300;-56
2022/11/18 00:56:31;;;;;;;0.80;0.40;;;11.10;99.90;;;;;;5054888;28;20263;-56
2022/11/18 00:58:58;;;;;;;0.30;0.30;;;11.20;99.90;;;;;;5055294;28;20304;-56
2022/11/18 01:01:25;;;;;;;0.57;0.43;;;11.20;99.90;;;;;;5056116;28;20206;-56
2022/11/18 01:03:54;;;;;;;1.90;0.90;;;11.30;99.90;;;;;;5054463;28;20216;-56
2022/11/18 01:06:21;;;;;;;1.73;0.93;;;11.30;99.90;;;;;;5055623;28;20240;-56
2022/11/18 01:08:48;;;;;;;0.90;0.73;;;11.30;99.90;;;;;;5055927;28;20205;-57
2022/11/18 01:13:59;;;;;;;0.47;0.40;;;11.50;99.90;;;;;;5054526;28;20196;-56
2022/11/18 01:16:28;;;;;;;1.27;0.53;;;11.50;99.90;;;;;;5055758;28;20205;-56
2022/11/18 01:18:56;;;;;;;0.57;0.50;;;11.50;99.90;;;;;;5055297;28;20376;-56
2022/11/18 01:21:24;;;;;;;0.53;0.40;;;11.50;99.90;;;;;;5056183;28;20224;-56
2022/11/18 01:23:50;;;;;;;1.03;0.70;;;11.50;99.90;;;;;;5054474;28;20201;-56
2022/11/18 01:26:18;;;;;;;1.43;0.80;;;11.50;99.90;;;;;;5054106;28;20205;-56
2022/11/18 01:28:45;;;;;;;3.00;0.40;;;11.50;99.90;;;;;;5054177;28;20202;-56
2022/11/18 01:31:13;;;;;;;0.73;0.40;;;11.40;99.90;;;;;;5053822;28;20228;-56
2022/11/18 01:33:41;;;;;;;0.90;0.60;;;11.40;99.90;;;;;;5052990;28;20678;-56
2022/11/18 01:36:17;;;;;;;0.87;0.47;;;11.30;99.90;;;;;;5053622;28;20206;-56
2022/11/18 01:38:43;;;;;;;0.97;0.57;;;11.30;99.90;;;;;;5053511;28;20693;-56
2022/11/18 01:41:11;;;;;;;0.60;0.50;;;11.30;99.90;;;;;;5053840;28;20254;-56
2022/11/18 01:43:53;;;;;;;0.87;0.50;;;11.40;99.90;;;;;;5053159;28;20210;-57
2022/11/18 01:46:21;;;;;;;1.43;0.67;;;11.40;99.90;;;;;;5053435;28;20218;-57
2022/11/18 01:48:52;;;;;;;0.60;0.40;;;11.50;99.90;;;;;;5053740;28;20229;-56
2022/11/18 01:51:26;;;;;;;0.53;0.40;;;11.50;99.90;;;;;;5053483;28;20202;-56
2022/11/18 01:53:59;;;;;;;0.53;0.40;;;11.40;99.90;;;;;;5052815;28;20237;-57
2022/11/18 01:56:32;;;;;;;2.10;0.30;;;11.40;99.90;;;;;;5053184;28;20628;-57
2022/11/18 01:59:04;;;;;;;0.80;0.40;;;11.30;99.90;;;;;;5053144;28;20755;-57
2022/11/18 02:01:31;;;;;;;0.90;0.30;;;11.40;99.90;;;;;;5053304;28;20220;-57
2022/11/18 02:03:58;;;;;;;0.30;0.20;;;11.40;99.90;;;;;;5052429;28;20669;-57
2022/11/18 02:06:27;;;;;;;0.43;0.30;;;11.30;99.90;;;;;;5052524;28;20201;-57
2022/11/18 02:08:55;;;;;;;0.60;0.33;;;11.30;99.90;;;;;;5052223;28;20616;-57
2022/11/18 02:14:10;;;;;;;0.47;0.30;;;11.30;99.90;;;;;;5050051;28;20189;-57
2022/11/18 02:16:51;;;;;;;0.57;0.30;;;11.40;99.90;;;;;;5052471;28;20209;-57
2022/11/18 02:19:41;;;;;;;0.40;0.37;;;11.30;99.90;;;;;;5052330;28;20238;-57
2022/11/18 02:22:25;;;;;;;1.23;0.47;;;11.40;99.90;;;;;;5052367;28;20213;-57
2022/11/18 02:25:02;;;;;;;0.20;0.20;;;11.40;99.90;;;;;;5051507;28;20205;-57
2022/11/18 02:28:04;;;;;;;1.03;0.53;;;11.40;99.90;;;;;;5052256;28;20209;-57
2022/11/18 02:30:39;;;;;;;1.63;0.23;;;11.40;99.90;;;;;;5052141;28;20228;-57
2022/11/18 02:33:10;;;;;;;0.90;0.30;;;11.30;99.90;;;;;;5052558;28;20216;-57
2022/11/18 02:35:42;;;;;;;1.53;0.43;;;11.30;99.90;;;;;;5051971;28;20300;-57
2022/11/18 02:38:11;;;;;;;1.17;0.40;;;11.20;99.90;;;;;;5052478;28;20229;-57
2022/11/18 02:40:42;;;;;;;1.60;0.50;;;11.20;99.90;;;;;;5052258;28;20295;-57
2022/11/18 02:43:14;;;;;;;1.33;0.60;;;11.20;99.90;;;;;;5052315;28;20210;-57
2022/11/18 02:45:46;;;;;;;1.40;0.40;;;11.20;99.90;;;;;;5052120;28;20211;-57
2022/11/18 02:48:14;;;;;;;1.37;0.50;;;11.20;99.90;;;;;;5052865;28;20211;-57
2022/11/18 02:50:44;;;;;;;1.03;0.37;;;11.20;99.90;;;;;;5052425;28;20283;-57
2022/11/18 02:53:14;;;;;;;1.40;0.40;;;11.20;99.90;;;;;;5052755;28;20262;-57
2022/11/18 02:55:43;;;;;;;0.60;0.30;;;11.10;99.90;;;;;;5052424;28;20693;-57
2022/11/18 02:58:12;;;;;;;0.67;0.40;;;11.10;99.90;;;;;;5052182;28;20226;-57
2022/11/18 03:00:39;;;;;;;0.83;0.30;;;11.00;99.90;;;;;;5051617;28;20229;-57
2022/11/18 03:03:26;;;;;;;0.53;0.40;;;11.00;99.90;;;;;;5052025;28;20232;-57
2022/11/18 03:06:02;;;;;;;1.13;0.57;;;11.00;99.90;;;;;;5051651;28;20206;-56
2022/11/18 03:08:36;;;;;;;0.93;0.40;;;11.00;99.90;;;;;;5051976;28;20244;-57
2022/11/18 03:11:10;;;;;;;2.07;0.50;;;11.00;99.90;;;;;;5051947;28;20236;-57
2022/11/18 03:13:48;;;;;;;4.00;0.60;;;11.10;99.90;;;;;;5051224;28;20765;-57
2022/11/18 03:16:19;;;;;;;1.37;0.50;;;11.10;99.90;;;;;;5051719;28;20205;-57
2022/11/18 03:18:54;;;;;;;1.57;0.80;;;11.10;99.90;;;;;;5051915;28;20221;-57
2022/11/18 03:21:24;;;;;;;1.07;0.30;;;11.10;99.90;;;;;;5051499;28;20215;-57
2022/11/18 03:23:59;;;;;;;1.90;0.53;;;10.90;99.90;;;;;;5051473;28;20206;-56
2022/11/18 03:26:31;;;;;;;0.40;0.33;;;10.90;99.90;;;;;;5052361;28;20236;-57
2022/11/18 03:29:03;;;;;;;1.60;0.40;;;11.00;99.90;;;;;;5052358;28;20588;-57
2022/11/18 03:31:34;;;;;;;0.83;0.37;;;11.00;99.90;;;;;;5052108;28;20267;-57
2022/11/18 03:34:07;;;;;;;0.93;0.53;;;11.10;99.90;;;;;;5051203;28;20233;-56
2022/11/18 03:36:41;;;;;;;2.00;0.30;;;11.20;99.90;;;;;;5053890;28;20210;-57
2022/11/18 03:39:10;;;;;;;4.60;0.63;;;11.20;99.90;;;;;;5055105;28;20311;-57
2022/11/18 03:41:42;;;;;;;0.90;0.40;;;11.20;99.90;;;;;;5055843;28;20213;-56
2022/11/18 03:44:13;;;;;;;0.80;0.50;;;11.20;99.90;;;;;;5054560;28;20532;-57
2022/11/18 03:46:44;;;;;;;0.77;0.33;;;11.20;99.90;;;;;;5055106;28;20212;-57
2022/11/18 03:49:18;;;;;;;0.97;0.50;;;11.10;99.90;;;;;;5055038;28;20221;-57
2022/11/18 03:51:49;;;;;;;2.13;0.97;;;11.10;99.90;;;;;;5054923;28;20220;-57
2022/11/18 03:54:22;;;;;;;1.87;0.50;;;11.10;99.90;;;;;;5054591;28;20252;-57
2022/11/18 03:56:54;;;;;;;0.90;0.60;;;11.10;99.90;;;;;;5054562;28;20245;-57
2022/11/18 03:59:24;;;;;;;1.63;0.67;;;11.10;99.90;;;;;;5054697;28;20229;-57
2022/11/18 04:01:54;;;;;;;1.53;0.70;;;11.10;99.90;;;;;;5054934;28;20260;-57
2022/11/18 04:04:24;;;;;;;1.80;1.00;;;11.00;99.90;;;;;;5054441;28;20312;-59
2022/11/18 04:06:59;;;;;;;2.23;0.80;;;11.00;99.90;;;;;;5054567;28;20608;-56
2022/11/18 04:09:29;;;;;;;18.67;14.87;;;10.90;99.90;;;;;;5054652;28;20225;-56
2022/11/18 04:12:03;;;;;;;1.53;0.80;;;10.90;99.90;;;;;;5054464;28;20768;-56
2022/11/18 04:14:31;;;;;;;0.50;0.50;;;10.90;99.90;;;;;;5053709;28;20673;-56
2022/11/18 04:16:58;;;;;;;2.27;0.90;;;10.90;99.90;;;;;;5054566;28;20205;-56
2022/11/18 04:19:27;;;;;;;0.90;0.67;;;10.90;99.90;;;;;;5054182;28;20781;-56
2022/11/18 04:21:54;;;;;;;1.03;0.53;;;10.90;99.90;;;;;;5054201;28;20209;-57
2022/11/18 04:24:21;;;;;;;1.30;0.40;;;10.90;99.90;;;;;;5054119;28;20201;-56
2022/11/18 04:26:48;;;;;;;1.57;0.70;;;10.90;99.90;;;;;;5054148;28;20296;-56
2022/11/18 04:29:15;;;;;;;0.53;0.40;;;10.80;99.90;;;;;;5054216;28;20229;-56
2022/11/18 04:31:41;;;;;;;2.80;0.57;;;10.80;99.90;;;;;;5054015;28;20213;-56
2022/11/18 04:34:08;;;;;;;0.93;0.40;;;10.80;99.90;;;;;;5054240;28;20297;-56
2022/11/18 04:36:37;;;;;;;2.57;0.53;;;10.80;99.90;;;;;;5054362;28;20708;-56
2022/11/18 04:39:04;;;;;;;2.50;1.17;;;10.70;99.90;;;;;;5054353;28;20234;-57
2022/11/18 04:44:15;;;;;;;0.90;0.20;;;10.60;99.90;;;;;;5053906;28;20344;-56
2022/11/18 04:46:43;;;;;;;1.00;0.43;;;10.60;99.90;;;;;;5053833;28;20230;-56
2022/11/18 04:49:11;;;;;;;1.00;0.40;;;10.50;99.90;;;;;;5054092;28;20228;-56
2022/11/18 04:51:39;;;;;;;1.67;0.47;;;10.50;99.90;;;;;;5054271;28;20236;-56
2022/11/18 04:54:07;;;;;;;0.23;0.23;;;10.50;99.90;;;;;;5053530;28;20735;-56
2022/11/18 04:56:34;;;;;;;1.33;0.50;;;10.50;99.90;;;;;;5053962;28;20209;-57
2022/11/18 04:59:01;;;;;;;1.37;0.40;;;10.50;99.90;;;;;;5053675;28;20702;-56
2022/11/18 05:01:28;;;;;;;2.97;0.40;;;10.50;99.90;;;;;;5053654;28;20296;-56
2022/11/18 05:03:55;;;;;;;0.93;0.47;;;10.50;99.90;;;;;;5053421;28;20209;-56
2022/11/18 05:06:23;;;;;;;1.93;1.60;;;10.50;99.90;;;;;;5053938;28;20296;-56
2022/11/18 05:08:51;;;;;;;2.93;2.20;;;10.60;99.90;;;;;;5053957;28;20288;-56
2022/11/18 05:14:03;;;;;;;0.80;0.70;;;10.50;99.90;;;;;;5054162;28;20189;-56
2022/11/18 05:16:30;;;;;;;1.47;0.70;;;10.60;99.90;;;;;;5053917;28;20251;-56
2022/11/18 05:18:57;;;;;;;1.93;1.43;;;10.60;99.90;;;;;;5054225;28;20237;-56
2022/11/18 05:21:24;;;;;;;1.77;0.60;;;10.50;99.90;;;;;;5053747;28;20217;-57
2022/11/18 05:23:52;;;;;;;1.67;0.70;;;10.40;99.90;;;;;;5053698;28;20307;-57
2022/11/18 05:26:19;;;;;;;0.77;0.60;;;10.40;99.90;;;;;;5053584;28;20751;-56
2022/11/18 05:28:46;;;;;;;2.63;0.73;;;10.50;99.90;;;;;;5053438;28;20198;-56
2022/11/18 05:31:15;;;;;;;1.10;0.60;;;10.50;99.90;;;;;;5053863;28;20323;-56
2022/11/18 05:33:43;;;;;;;1.80;1.33;;;10.50;99.90;;;;;;5053767;28;20240;-56
2022/11/18 05:36:13;;;;;;;2.20;1.47;;;10.50;99.90;;;;;;5052967;28;20205;-56
2022/11/18 05:38:40;;;;;;;0.80;0.80;;;10.60;99.90;;;;;;5053436;28;20228;-56
2022/11/18 05:41:09;;;;;;;1.00;0.90;;;10.60;99.90;;;;;;5053801;28;20205;-56
2022/11/18 05:43:36;;;;;;;0.60;0.60;;;10.60;99.90;;;;;;5053817;28;20214;-57
2022/11/18 05:46:04;;;;;;;1.10;0.90;;;10.60;99.90;;;;;;5052717;28;20604;-56
2022/11/18 05:48:31;;;;;;;2.83;1.53;;;10.60;99.90;;;;;;5053328;28;20279;-56
2022/11/18 05:50:57;;;;;;;1.30;0.90;;;10.50;99.90;;;;;;5053105;28;20237;-56
2022/11/18 05:53:25;;;;;;;4.77;3.07;;;10.50;99.90;;;;;;5053164;28;20402;-56
2022/11/18 05:55:58;;;;;;;1.40;1.00;;;10.50;99.90;;;;;;5052768;28;20205;-56
2022/11/18 05:58:27;;;;;;;2.03;0.93;;;10.50;99.90;;;;;;5052958;28;20296;-56
2022/11/18 06:00:58;;;;;;;1.73;1.10;;;10.50;99.90;;;;;;5052830;28;20295;-57
2022/11/18 06:03:27;;;;;;;3.97;2.30;;;10.50;99.90;;;;;;5052927;28;20577;-56
2022/11/18 06:05:55;;;;;;;2.53;1.40;;;10.50;99.90;;;;;;5052975;28;20229;-56
2022/11/18 06:08:23;;;;;;;7.93;4.73;;;10.50;99.90;;;;;;5053093;28;20673;-56
2022/11/18 06:10:52;;;;;;;2.20;1.20;;;10.50;99.90;;;;;;5052826;28;20541;-56
2022/11/18 06:13:23;;;;;;;2.80;1.43;;;10.50;99.90;;;;;;5052377;28;20209;-56
2022/11/18 06:15:52;;;;;;;4.67;2.67;;;10.50;99.90;;;;;;5051753;28;20213;-56
2022/11/18 06:18:23;;;;;;;1.57;1.07;;;10.50;99.90;;;;;;5052384;28;20205;-56
2022/11/18 06:20:52;;;;;;;3.33;1.90;;;10.50;99.90;;;;;;5052588;28;20240;-56
2022/11/18 06:23:19;;;;;;;19.10;11.67;;;10.50;99.90;;;;;;5052643;28;20202;-56
2022/11/18 06:25:46;;;;;;;15.70;8.40;;;10.50;99.90;;;;;;5051961;28;20244;-56
2022/11/18 06:28:15;;;;;;;3.00;2.17;;;10.50;99.90;;;;;;5052437;28;20263;-56
2022/11/18 06:30:43;;;;;;;2.23;1.77;;;10.50;99.90;;;;;;5052216;28;20253;-56
2022/11/18 06:33:11;;;;;;;6.33;4.20;;;10.50;99.90;;;;;;5051732;28;20205;-56
2022/11/18 06:35:37;;;;;;;1.27;1.10;;;10.50;99.90;;;;;;5051536;28;20213;-56
2022/11/18 06:38:04;;;;;;;5.20;3.10;;;10.50;99.90;;;;;;5051936;28;20212;-57
2022/11/18 06:40:31;;;;;;;3.27;1.67;;;10.50;99.90;;;;;;5052051;28;20327;-56
2022/11/18 06:46:54;;;;;;;3.10;1.50;;;10.50;99.90;;;;;;5052020;28;20209;-57
2022/11/18 06:48:31;;;;;;;6.93;4.30;;;10.50;99.90;;;;;;5051927;28;20349;-57
2022/11/18 06:50:57;;;;;;;1.77;0.80;;;10.50;99.90;;;;;;5051852;28;20239;-57
2022/11/18 06:53:24;;;;;;;3.00;1.53;;;10.50;99.90;;;;;;5052052;28;20211;-56
2022/11/18 06:55:51;;;;;;;5.93;3.03;;;10.50;99.90;;;;;;5051039;28;20747;-56
2022/11/18 06:58:18;;;;;;;5.83;1.47;;;10.50;99.90;;;;;;5051633;28;20201;-56
2022/11/18 07:00:44;;;;;;;2.73;1.20;;;10.60;99.90;;;;;;5051524;28;20239;-56
2022/11/18 07:03:11;;;;;;;2.07;0.97;;;10.60;99.90;;;;;;5051528;28;20207;-56
2022/11/18 07:05:39;;;;;;;1.37;0.60;;;10.70;99.90;;;;;;5051078;28;20210;-56
2022/11/18 07:08:06;;;;;;;1.70;1.00;;;10.70;99.90;;;;;;5051292;28;20723;-56
2022/11/18 07:10:33;;;;;;;1.03;0.90;;;10.70;99.90;;;;;;5053879;28;20221;-56
2022/11/18 07:13:00;;;;;;;1.50;0.63;;;10.80;99.90;;;;;;5055641;28;20206;-57
2022/11/18 07:15:27;;;;;;;1.10;0.80;;;10.90;99.90;;;;;;5054991;28;20210;-57
2022/11/18 07:17:53;;;;;;;0.50;0.40;;;10.80;99.90;;;;;;5055515;28;20213;-56
2022/11/18 07:20:20;;;;;;;0.83;0.33;;;10.80;99.90;;;;;;5055099;28;20229;-57
2022/11/18 07:22:52;;;;;;;1.40;0.67;;;10.70;99.90;;;;;;5055390;28;20547;-57
2022/11/18 07:25:19;;;;;;;1.37;0.57;;;10.70;99.90;;;;;;5054897;28;20309;-60
2022/11/18 07:27:46;;;;;;;1.30;0.70;;;10.80;99.90;;;;;;5055399;28;20212;-60
2022/11/18 07:30:14;;;;;;;1.43;0.60;;;10.90;99.90;;;;;;5055305;28;20316;-60
2022/11/18 07:32:40;;;;;;;2.20;0.70;;;10.90;99.90;;;;;;5055111;28;20312;-60
2022/11/18 07:35:08;;;;;;;2.20;0.60;;;10.90;99.90;;;;;;5054514;28;20209;-59
2022/11/18 07:37:35;;;;;;;1.57;1.10;;;10.90;99.90;;;;;;5054987;28;20205;-59
2022/11/18 07:40:03;;;;;;;0.83;0.60;;;10.90;99.90;;;;;;5055317;28;20607;-61
2022/11/18 07:42:41;;;;;;;2.50;0.90;;;10.90;99.90;;;;;;5055269;28;20217;-60
2022/11/18 07:45:09;;;;;;;3.60;0.90;;;10.80;99.90;;;;;;5054556;28;20669;-59
2022/11/18 07:47:36;;;;;;;1.00;0.80;;;10.60;99.90;;;;;;5055131;28;20296;-60
2022/11/18 07:50:03;;;;;;;0.50;0.43;;;10.60;99.90;;;;;;5055050;28;20222;-59
2022/11/18 07:52:30;;;;;;;1.70;0.50;;;10.50;99.90;;;;;;5055922;28;20582;-60
2022/11/18 07:54:57;;;;;;;1.70;0.63;;;10.40;99.90;;;;;;5054871;28;20215;-60
2022/11/18 07:57:25;;;;;;;1.00;0.67;;;10.50;99.90;;;;;;5055673;28;20205;-59
2022/11/18 07:59:51;;;;;;;0.90;0.73;;;10.60;99.90;;;;;;5055407;28;20225;-59
2022/11/18 08:02:18;;;;;;;1.87;1.60;;;10.60;99.90;;;;;;5055524;28;20210;-59
2022/11/18 08:04:45;;;;;;;1.60;1.30;;;10.70;99.90;;;;;;5055736;28;20209;-60
2022/11/18 08:07:12;;;;;;;1.37;1.20;;;10.70;99.90;;;;;;5055478;28;20205;-60
2022/11/18 08:09:38;;;;;;;1.40;0.83;;;10.80;99.90;;;;;;5056099;28;20589;-59
2022/11/18 08:12:06;;;;;;;1.30;0.80;;;10.90;99.90;;;;;;5055898;28;20202;-59
2022/11/18 08:14:34;;;;;;;1.60;1.20;;;11.00;99.90;;;;;;5055387;28;20578;-60
2022/11/18 08:17:01;;;;;;;0.97;0.70;;;11.00;99.90;;;;;;5056172;28;20205;-60
2022/11/18 08:19:28;;;;;;;1.10;0.80;;;11.00;99.90;;;;;;5056783;28;20233;-60
2022/11/18 08:21:54;;;;;;;2.07;1.10;;;11.10;99.90;;;;;;5056422;28;20292;-60
2022/11/18 08:24:21;;;;;;;3.87;1.20;;;11.10;99.90;;;;;;5056622;28;20212;-60
2022/11/18 08:26:48;;;;;;;3.07;1.00;;;11.10;99.90;;;;;;5056543;28;20327;-60
2022/11/18 08:29:15;;;;;;;2.40;1.87;;;11.20;99.90;;;;;;5056662;28;20225;-60
2022/11/18 08:31:43;;;;;;;2.67;1.90;;;11.20;99.90;;;;;;5056307;28;20209;-61
2022/11/18 08:34:11;;;;;;;2.10;1.47;;;11.20;99.90;;;;;;5054707;28;20217;-60
2022/11/18 08:36:39;;;;;;;1.97;0.97;;;11.20;99.90;;;;;;5051387;28;20210;-61
2022/11/18 08:39:07;;;;;;;1.83;1.10;;;11.30;99.90;;;;;;5076056;28;20236;-62
2022/11/18 08:41:37;;;;;;;1.50;1.00;;;11.30;99.90;;;;;;5074464;28;20237;-66
2022/11/18 08:44:05;;;;;;;1.63;0.90;;;11.40;99.90;;;;;;5076170;28;20209;-60
2022/11/18 08:46:32;;;;;;;1.53;1.00;;;11.40;99.90;;;;;;5074757;28;20212;-62
2022/11/18 08:49:00;;;;;;;0.90;0.80;;;11.50;99.90;;;;;;5076022;28;20225;-65
2022/11/18 08:51:28;;;;;;;4.50;2.50;;;11.50;99.90;;;;;;5075617;28;20677;-60
2022/11/18 08:53:55;;;;;;;1.87;1.33;;;11.50;99.90;;;;;;5075364;28;20200;-61
2022/11/18 08:56:24;;;;;;;3.77;3.20;;;11.60;99.90;;;;;;5073701;28;20665;-60
2022/11/18 08:58:51;;;;;;;14.90;7.60;;;11.70;99.90;;;;;;5074744;28;20205;-60
2022/11/18 09:01:18;;;;;;;3.87;2.20;;;11.70;99.90;;;;;;5074695;28;20227;-60
2022/11/18 09:03:46;;;;;;;2.60;0.80;;;11.80;99.90;;;;;;5074785;28;20262;-60
2022/11/18 09:06:15;;;;;;;1.60;0.63;;;11.70;99.90;;;;;;5072919;28;20275;-61
2022/11/18 09:08:43;;;;;;;0.80;0.47;;;11.90;99.90;;;;;;5073723;28;20205;-60
2022/11/18 09:11:12;;;;;;;1.57;0.70;;;11.90;99.90;;;;;;5073784;28;20201;-61
2022/11/18 09:13:39;;;;;;;1.17;0.70;;;11.90;99.90;;;;;;5073898;28;20215;-61
2022/11/18 09:16:06;;;;;;;2.43;0.70;;;11.80;99.90;;;;;;5072903;28;20200;-61
2022/11/18 09:18:34;;;;;;;0.93;0.60;;;11.80;99.90;;;;;;5073430;28;20262;-60
2022/11/18 09:21:03;;;;;;;0.97;0.57;;;11.80;99.90;;;;;;5073388;28;20233;-61
2022/11/18 09:23:34;;;;;;;1.60;0.73;;;11.80;99.90;;;;;;5073465;28;20692;-61
2022/11/18 09:26:03;;;;;;;1.23;0.70;;;11.80;99.90;;;;;;5072634;28;20232;-60
2022/11/18 09:28:31;;;;;;;0.80;0.80;;;11.90;99.90;;;;;;5073410;28;20209;-63
2022/11/18 09:30:57;;;;;;;1.07;0.80;;;12.00;99.90;;;;;;5073111;28;20225;-60
2022/11/18 09:33:24;;;;;;;1.07;0.50;;;12.10;99.90;;;;;;5072265;28;20212;-61
2022/11/18 09:35:51;;;;;;;0.67;0.60;;;12.10;99.90;;;;;;5072653;28;20215;-60
2022/11/18 09:38:18;;;;;;;0.90;0.60;;;12.20;99.90;;;;;;5072940;28;20262;-61
2022/11/18 09:40:58;;;;;;;0.77;0.50;;;12.30;99.90;;;;;;5072438;28;20229;-60
2022/11/18 09:43:33;;;;;;;1.57;1.13;;;12.40;99.90;;;;;;5072681;28;20579;-60
2022/11/18 09:46:06;;;;;;;0.83;0.60;;;12.50;99.90;;;;;;5072244;28;20212;-61
2022/11/18 09:51:26;;;;;;;0.93;0.50;;;12.60;99.90;;;;;;5072718;28;20655;-61
2022/11/18 09:53:53;;;;;;;0.97;0.63;;;12.60;99.90;;;;;;5072597;28;20736;-61
2022/11/18 09:56:22;;;;;;;0.80;0.60;;;12.60;99.90;;;;;;5072022;28;20589;-60
2022/11/18 09:58:49;;;;;;;1.30;0.77;;;12.60;99.90;;;;;;5072469;28;20295;-61
2022/11/18 10:01:19;;;;;;;1.70;1.20;;;12.60;99.90;;;;;;5072609;28;20220;-61
2022/11/18 10:03:46;;;;;;;1.90;0.63;;;12.60;99.90;;;;;;5072889;28;20304;-61
2022/11/18 10:06:21;;;;;;;0.70;0.67;;;12.70;99.90;;;;;;5072227;28;20216;-61
2022/11/18 10:09:04;;;;;;;2.00;0.70;;;12.70;99.90;;;;;;5072362;28;20208;-62
2022/11/18 10:11:39;;;;;;;3.17;1.23;;;12.50;99.90;;;;;;5072552;28;20208;-62
2022/11/18 10:14:19;;;;;;;0.77;0.70;;;12.40;99.90;;;;;;5072755;28;20204;-59
2022/11/18 10:16:54;;;;;;;2.70;0.90;;;12.40;99.90;;;;;;5072589;28;20293;-59
2022/11/18 10:19:30;;;;;;;2.30;1.00;;;12.50;99.90;;;;;;5072429;28;20260;-59
2022/11/18 10:22:19;;;;;;;1.63;0.90;;;12.60;99.90;;;;;;5072323;28;20726;-59
2022/11/18 10:24:50;;;;;;;1.27;0.90;;;12.40;99.90;;;;;;5072803;28;20215;-60
2022/11/18 10:27:18;;;;;;;2.23;0.80;;;12.40;99.90;;;;;;5073244;28;20213;-60
2022/11/18 10:29:47;;;;;;;1.07;0.70;;;12.50;99.90;;;;;;5072941;28;20304;-60
2022/11/18 10:32:15;;;;;;;0.93;0.73;;;12.60;99.90;;;;;;5072382;28;20212;-61
2022/11/18 10:34:49;;;;;;;0.97;0.90;;;12.70;99.90;;;;;;5071785;28;20730;-59
2022/11/18 10:37:24;;;;;;;1.73;1.00;;;12.70;99.90;;;;;;5072130;28;20588;-60
2022/11/18 10:39:53;;;;;;;1.87;1.00;;;12.80;99.90;;;;;;5072329;28;20650;-60
2022/11/18 10:42:28;;;;;;;5.33;3.40;;;12.90;99.90;;;;;;5072594;28;20604;-61
2022/11/18 10:44:56;;;;;;;1.87;1.37;;;12.90;99.90;;;;;;5073638;28;20254;-61
2022/11/18 10:47:26;;;;;;;0.93;0.83;;;13.00;99.90;;;;;;5076412;28;20651;-61
2022/11/18 10:49:56;;;;;;;2.53;1.00;;;13.10;99.90;;;;;;5075989;28;20716;-61
2022/11/18 10:52:23;;;;;;;2.40;1.10;;;13.10;99.90;;;;;;5076387;28;20208;-61
2022/11/18 10:55:20;;;;;;;1.10;0.80;;;13.00;99.90;;;;;;5076040;28;20282;-60
2022/11/18 10:57:55;;;;;;;0.53;0.53;;;13.10;99.90;;;;;;5076366;28;20264;-61
2022/11/18 11:00:41;;;;;;;1.90;0.57;;;13.10;99.90;;;;;;5075847;28;20651;-61
2022/11/18 11:03:36;;;;;;;0.77;0.60;;;13.10;99.90;;;;;;5075675;28;20243;-60
2022/11/18 11:06:22;;;;;;;1.00;0.77;;;13.20;99.90;;;;;;5039778;28;20629;-61
2022/11/18 11:08:50;;;;;;;4.67;2.83;;;13.20;99.90;;;;;;5075687;28;20205;-61
2022/11/18 11:11:25;;;;;;;1.13;0.60;;;13.10;99.90;;;;;;5075812;28;20592;-61
2022/11/18 11:13:58;;;;;;;1.63;1.10;;;13.20;99.90;;;;;;5076312;28;20208;-62
2022/11/18 11:16:27;;;;;;;2.27;1.07;;;13.20;99.90;;;;;;5075322;28;20205;-61
2022/11/18 11:18:58;;;;;;;1.27;0.93;;;13.30;99.90;;;;;;5075561;28;20250;-61
2022/11/18 11:21:27;;;;;;;3.07;1.67;;;13.40;99.90;;;;;;5075706;28;20220;-62
2022/11/18 11:23:54;;;;;;;3.00;0.87;;;13.60;99.90;;;;;;5075498;28;20216;-61
2022/11/18 11:26:32;;;;;;;2.80;0.90;;;13.70;99.90;;;;;;5074982;28;20212;-61
2022/11/18 11:29:05;;;;;;;1.43;0.73;;;13.70;99.90;;;;;;5075447;28;20422;-61
2022/11/18 11:31:43;;;;;;;1.00;0.90;;;13.50;99.90;;;;;;5075848;28;20287;-61
2022/11/18 11:34:22;;;;;;;3.13;1.00;;;13.30;99.90;;;;;;5075599;28;20640;-61
2022/11/18 11:36:54;;;;;;;1.20;0.70;;;13.20;99.90;;;;;;5075026;28;20205;-61
2022/11/18 11:39:40;;;;;;;5.70;1.40;;;13.30;99.90;;;;;;5075247;28;20236;-60
2022/11/18 11:42:19;;;;;;;3.13;1.27;;;13.30;99.90;;;;;;5075679;28;20225;-60
2022/11/18 11:45:01;;;;;;;2.97;1.43;;;13.40;99.90;;;;;;5074711;28;20723;-60
2022/11/18 11:47:48;;;;;;;1.93;1.27;;;13.40;99.90;;;;;;5075560;28;20209;-60
2022/11/18 11:50:23;;;;;;;2.33;1.30;;;13.40;99.90;;;;;;5069646;28;20220;-59
2022/11/18 11:53:10;;;;;;;2.47;1.43;;;13.20;99.90;;;;;;5073569;28;20211;-59
2022/11/18 11:55:52;;;;;;;3.13;1.70;;;13.10;99.90;;;;;;5072839;28;20212;-58
2022/11/18 11:58:32;;;;;;;3.80;0.90;;;13.00;99.90;;;;;;5073802;28;20205;-59
2022/11/18 12:01:10;;;;;;;1.40;1.10;;;13.00;99.90;;;;;;5073298;28;20229;-59
2022/11/18 12:03:45;;;;;;;1.00;0.90;;;13.10;99.90;;;;;;5073504;28;20583;-58
2022/11/18 12:06:12;;;;;;;1.20;0.70;;;13.20;99.90;;;;;;5073904;28;20200;-59
2022/11/18 12:08:48;;;;;;;1.77;1.13;;;13.40;99.90;;;;;;5072697;28;20654;-59
2022/11/18 12:11:20;;;;;;;2.27;1.13;;;13.50;99.90;;;;;;5073727;28;20291;-58
2022/11/18 12:13:55;;;;;;;3.13;1.00;;;13.80;99.90;;;;;;5073547;28;20189;-59
2022/11/18 12:16:31;;;;;;;2.43;1.70;;;13.70;99.90;;;;;;5073496;28;20208;-59
2022/11/18 12:19:02;;;;;;;3.17;0.80;;;13.80;99.90;;;;;;5073044;28;20627;-59
2022/11/18 12:21:55;;;;;;;2.97;1.10;;;13.80;99.90;;;;;;5073215;28;20319;-60
2022/11/18 12:24:30;;;;;;;1.10;0.73;;;13.80;99.90;;;;;;5073404;28;20300;-59
2022/11/18 12:26:58;;;;;;;1.40;0.93;;;13.80;99.90;;;;;;5073369;28;20204;-59
2022/11/18 12:29:30;;;;;;;2.70;1.33;;;13.90;99.90;;;;;;5073563;28;20237;-59
2022/11/18 12:32:00;;;;;;;2.17;1.30;;;14.00;99.90;;;;;;5073287;28;20209;-59
2022/11/18 12:34:38;;;;;;;2.70;1.30;;;14.10;99.90;;;;;;5073248;28;20584;-58
2022/11/18 12:37:42;;;;;;;3.47;1.00;;;14.10;99.90;;;;;;5073618;28;20209;-58
2022/11/18 12:40:10;;;;;;;2.97;1.37;;;13.90;99.90;;;;;;5072832;28;20256;-58
2022/11/18 12:45:58;;;;;;;2.90;0.83;;;13.90;99.90;;;;;;5072622;28;20723;-59
2022/11/18 12:48:39;;;;;;;1.33;0.70;;;13.70;99.90;;;;;;5073526;28;20559;-61
2022/11/18 12:51:47;;;;;;;3.00;1.00;;;13.60;99.90;;;;;;5073461;28;20255;-62
2022/11/18 12:54:28;;;;;;;3.70;1.70;;;13.70;99.90;;;;;;5072772;28;20702;-62
2022/11/18 12:56:56;;;;;;;4.43;0.90;;;13.80;99.90;;;;;;5073086;28;20232;-62
2022/11/18 12:59:31;;;;;;;3.00;1.60;;;13.80;99.90;;;;;;5073368;28;20220;-62
2022/11/18 13:02:20;;;;;;;3.13;0.97;;;13.60;99.90;;;;;;5073266;28;20221;-62
2022/11/18 13:10:32;;;;;;;2.23;1.27;;;13.60;99.90;;;;;;5068513;28;20347;-64
2022/11/18 13:12:59;;;;;;;4.87;1.90;;;13.60;99.90;;;;;;5068390;28;20216;-63
2022/11/18 13:18:14;;;;;;;3.50;2.27;;;13.40;99.90;;;;;;5068772;28;20204;-62
2022/11/18 13:20:42;;;;;;;3.83;1.30;;;13.30;99.90;;;;;;5068535;28;20587;-62
2022/11/18 13:26:19;;;;;;;2.63;1.80;;;13.40;99.90;;;;;;5068212;28;20234;-62
2022/11/18 13:29:07;;;;;;;4.23;1.73;;;13.30;99.90;;;;;;5083458;28;20200;-63
2022/11/18 13:31:42;;;;;;;3.70;1.47;;;13.30;99.90;;;;;;5089653;28;20248;-62
2022/11/18 13:34:17;;;;;;;114.63;83.50;;;13.00;99.90;;;;;;5088776;28;20663;-62
2022/11/18 13:36:47;;;;;;;2.90;1.53;;;12.70;99.90;;;;;;5090009;28;20397;-59
2022/11/18 13:39:22;;;;;;;3.47;2.00;;;12.50;99.90;;;;;;5090238;28;20234;-59